Time;durP1;ratioP1;P1;durP2;ratioP2;P2;SDS_P1;SDS_P2;PMS_P1;PMS_P2;Temp;Humidity;BMP_temperature;BMP_pressure;BME280_temperature;BME280_humidity;BME280_pressure;Samples;Min_cycle;Max_cycle;Signal;HPM_P1;HPM_P2
2021/07/08 00:00:18;;;;;;;0.30;0.30;;;19.50;99.90;;;;;;4954168;29;20205;-73
2021/07/08 00:02:47;;;;;;;0.20;0.20;;;19.30;99.90;;;;;;4953712;28;20229;-73
2021/07/08 00:05:17;;;;;;;0.30;0.30;;;19.40;99.90;;;;;;4953490;29;20212;-71
2021/07/08 00:07:45;;;;;;;0.30;0.30;;;19.40;99.90;;;;;;4953770;29;20205;-74
2021/07/08 00:10:16;;;;;;;0.40;0.40;;;19.50;99.90;;;;;;4953579;29;20233;-73
2021/07/08 00:12:44;;;;;;;0.30;0.30;;;19.40;99.90;;;;;;4953808;28;20233;-73
2021/07/08 00:15:20;;;;;;;0.40;0.40;;;19.40;99.90;;;;;;4953283;29;20209;-73
2021/07/08 00:17:49;;;;;;;0.30;0.30;;;19.10;99.90;;;;;;4949092;29;20221;-73
2021/07/08 00:20:20;;;;;;;0.30;0.30;;;19.60;99.90;;;;;;4933940;29;20277;-73
2021/07/08 00:22:48;;;;;;;0.20;0.20;;;19.30;99.90;;;;;;4934403;29;20722;-73
2021/07/08 00:25:19;;;;;;;0.30;0.30;;;19.40;99.90;;;;;;4934080;29;20301;-73
2021/07/08 00:27:47;;;;;;;0.30;0.30;;;19.10;99.90;;;;;;4934246;29;20257;-74
2021/07/08 00:30:18;;;;;;;0.32;0.32;;;19.40;99.90;;;;;;4934179;29;20210;-73
2021/07/08 00:32:46;;;;;;;0.20;0.20;;;19.40;99.90;;;;;;4934062;29;20230;-75
2021/07/08 00:35:21;;;;;;;0.30;0.30;;;19.20;99.90;;;;;;4933935;29;20205;-72
2021/07/08 00:37:49;;;;;;;0.38;0.38;;;19.20;99.90;;;;;;4934029;29;20694;-73
2021/07/08 00:40:17;;;;;;;0.40;0.40;;;18.90;99.90;;;;;;4934501;29;20205;-73
2021/07/08 00:42:46;;;;;;;0.30;0.30;;;19.00;99.90;;;;;;4933772;29;20225;-72
2021/07/08 00:45:18;;;;;;;0.30;0.30;;;19.10;99.90;;;;;;4934383;29;20206;-73
2021/07/08 00:47:46;;;;;;;0.40;0.40;;;19.30;99.90;;;;;;4933939;29;20206;-73
2021/07/08 00:50:16;;;;;;;0.40;0.40;;;18.90;99.90;;;;;;4933934;29;20261;-73
2021/07/08 00:52:44;;;;;;;0.30;0.30;;;18.80;99.90;;;;;;4934254;29;20233;-73
2021/07/08 00:55:13;;;;;;;0.30;0.30;;;19.20;99.90;;;;;;4933817;29;20206;-73
2021/07/08 00:57:42;;;;;;;0.40;0.40;;;19.00;99.90;;;;;;4938127;29;20281;-73
2021/07/08 01:00:10;;;;;;;0.30;0.30;;;19.00;99.90;;;;;;4937865;29;20206;-73
2021/07/08 01:02:40;;;;;;;0.30;0.30;;;19.00;99.90;;;;;;4937627;29;20692;-73
2021/07/08 01:05:09;;;;;;;0.32;0.32;;;19.20;99.90;;;;;;4937552;29;20201;-73
2021/07/08 01:07:37;;;;;;;0.30;0.30;;;19.00;99.90;;;;;;4937930;29;20205;-75
2021/07/08 01:10:06;;;;;;;0.40;0.40;;;18.80;99.90;;;;;;4937797;29;20667;-73
2021/07/08 01:12:34;;;;;;;0.30;0.30;;;;;;;;;;4937820;29;20277;-74
2021/07/08 01:15:02;;;;;;;0.30;0.30;;;19.20;99.90;;;;;;4937339;29;20206;-74
2021/07/08 01:17:30;;;;;;;0.40;0.40;;;18.80;99.90;;;;;;4936838;29;20228;-74
2021/07/08 01:19:59;;;;;;;0.30;0.30;;;19.00;99.90;;;;;;4937659;29;20663;-74
2021/07/08 01:22:28;;;;;;;0.30;0.30;;;18.70;99.90;;;;;;4937521;29;20285;-75
2021/07/08 01:24:56;;;;;;;0.30;0.30;;;19.00;99.90;;;;;;4937570;29;20202;-74
2021/07/08 01:27:24;;;;;;;0.30;0.30;;;18.90;99.90;;;;;;4936836;29;20242;-75
2021/07/08 01:29:53;;;;;;;0.40;0.40;;;19.00;99.90;;;;;;4937110;29;20634;-73
2021/07/08 01:32:21;;;;;;;0.40;0.40;;;18.70;99.90;;;;;;4937500;29;20229;-75
2021/07/08 01:34:49;;;;;;;0.40;0.40;;;18.80;99.90;;;;;;4937496;29;20229;-75
2021/07/08 01:37:17;;;;;;;0.40;0.40;;;18.60;99.90;;;;;;4937170;29;20237;-75
2021/07/08 01:39:46;;;;;;;0.30;0.30;;;18.40;99.90;;;;;;4937054;29;20671;-74
2021/07/08 01:42:14;;;;;;;0.30;0.30;;;18.50;99.90;;;;;;4936911;29;20226;-74
2021/07/08 01:44:42;;;;;;;0.40;0.40;;;18.80;99.90;;;;;;4936862;29;20206;-74
2021/07/08 01:47:10;;;;;;;0.40;0.40;;;18.60;99.90;;;;;;4937151;29;20257;-75
2021/07/08 01:49:40;;;;;;;0.40;0.40;;;18.70;99.90;;;;;;4937211;29;20202;-75
2021/07/08 01:52:08;;;;;;;0.40;0.40;;;18.60;99.90;;;;;;4937793;29;20226;-74
2021/07/08 01:54:36;;;;;;;0.30;0.30;;;18.70;99.90;;;;;;4937663;29;20202;-74
2021/07/08 01:57:06;;;;;;;0.40;0.40;;;18.80;99.90;;;;;;4937370;29;20265;-75
2021/07/08 01:59:34;;;;;;;0.30;0.30;;;18.70;99.90;;;;;;4937510;29;20225;-75
2021/07/08 02:02:02;;;;;;;0.40;0.40;;;18.20;99.90;;;;;;4937436;29;20281;-74
2021/07/08 02:04:31;;;;;;;0.40;0.40;;;18.40;99.90;;;;;;4937600;29;20214;-75
2021/07/08 02:06:59;;;;;;;0.32;0.32;;;18.10;99.90;;;;;;4936299;29;20687;-75
2021/07/08 02:09:27;;;;;;;0.40;0.40;;;18.10;99.90;;;;;;4936976;29;20206;-74
2021/07/08 02:11:54;;;;;;;0.30;0.30;;;18.20;99.90;;;;;;4937306;29;20292;-75
2021/07/08 02:14:24;;;;;;;0.30;0.30;;;18.10;99.90;;;;;;4937308;29;20735;-75
2021/07/08 02:16:52;;;;;;;0.30;0.30;;;18.40;99.90;;;;;;4937195;29;20206;-74
2021/07/08 02:19:20;;;;;;;0.40;0.40;;;18.30;99.90;;;;;;4937302;29;20234;-75
2021/07/08 02:21:49;;;;;;;0.30;0.30;;;18.30;99.90;;;;;;4937178;29;20226;-75
2021/07/08 02:24:17;;;;;;;0.30;0.30;;;18.30;99.90;;;;;;4937014;29;20281;-75
2021/07/08 02:26:44;;;;;;;0.40;0.40;;;18.30;99.90;;;;;;4937056;29;20580;-74
2021/07/08 02:29:15;;;;;;;0.40;0.40;;;18.20;99.90;;;;;;4937223;29;20213;-74
2021/07/08 02:31:44;;;;;;;0.40;0.40;;;18.40;99.90;;;;;;4937194;29;20240;-74
2021/07/08 02:34:12;;;;;;;0.40;0.40;;;18.20;99.90;;;;;;4937060;29;20206;-74
2021/07/08 02:36:40;;;;;;;0.30;0.30;;;18.00;99.90;;;;;;4936731;29;20206;-73
2021/07/08 02:39:08;;;;;;;0.40;0.40;;;18.20;99.90;;;;;;4937021;29;20617;-73
2021/07/08 02:41:36;;;;;;;0.40;0.40;;;18.20;99.90;;;;;;4937013;29;20226;-72
2021/07/08 02:44:04;;;;;;;0.30;0.30;;;;;;;;;;4936880;29;20209;-74
2021/07/08 02:46:32;;;;;;;0.40;0.40;;;17.80;99.90;;;;;;4936632;29;20261;-73
2021/07/08 02:49:01;;;;;;;0.30;0.30;;;18.10;99.90;;;;;;4936691;29;20289;-73
2021/07/08 02:51:29;;;;;;;0.30;0.30;;;18.10;99.90;;;;;;4936743;29;20226;-73
2021/07/08 02:53:57;;;;;;;0.30;0.30;;;18.10;99.90;;;;;;4936727;29;20589;-74
2021/07/08 02:56:25;;;;;;;0.30;0.30;;;17.80;99.90;;;;;;4936429;29;20206;-73
2021/07/08 02:58:53;;;;;;;0.40;0.40;;;18.20;99.90;;;;;;4936605;29;20257;-73
2021/07/08 03:01:21;;;;;;;0.40;0.40;;;18.20;99.90;;;;;;4936417;29;20285;-73
2021/07/08 03:03:49;;;;;;;0.40;0.40;;;18.20;99.90;;;;;;4936318;29;20210;-73
2021/07/08 03:06:18;;;;;;;0.40;0.40;;;17.80;99.90;;;;;;4936285;29;20254;-72
2021/07/08 03:08:46;;;;;;;0.30;0.30;;;17.90;99.90;;;;;;4936429;29;20202;-74
2021/07/08 03:11:13;;;;;;;0.40;0.40;;;17.70;99.90;;;;;;4936215;29;20229;-74
2021/07/08 03:13:42;;;;;;;0.40;0.40;;;17.90;99.90;;;;;;4936295;29;20206;-74
2021/07/08 03:16:10;;;;;;;0.40;0.40;;;17.80;99.90;;;;;;4935908;29;20210;-74
2021/07/08 03:18:38;;;;;;;0.40;0.40;;;17.80;99.90;;;;;;4935898;29;20248;-74
2021/07/08 03:21:06;;;;;;;0.40;0.40;;;17.80;99.90;;;;;;4936253;29;20222;-73
2021/07/08 03:23:35;;;;;;;0.40;0.40;;;17.60;99.90;;;;;;4936062;29;20206;-74
2021/07/08 03:26:04;;;;;;;0.40;0.40;;;17.80;99.90;;;;;;4935857;29;20210;-73
2021/07/08 03:28:32;;;;;;;0.30;0.30;;;17.90;99.90;;;;;;4935879;29;20206;-74
2021/07/08 03:31:00;;;;;;;0.35;0.35;;;18.00;99.90;;;;;;4936065;29;20226;-73
2021/07/08 03:33:28;;;;;;;0.30;0.30;;;18.20;99.90;;;;;;4936020;29;20206;-73
2021/07/08 03:35:56;;;;;;;0.40;0.40;;;17.90;99.90;;;;;;4935856;29;20272;-73
2021/07/08 03:38:23;;;;;;;0.30;0.30;;;17.90;99.90;;;;;;4935561;29;20238;-73
2021/07/08 03:40:53;;;;;;;0.30;0.30;;;18.00;99.90;;;;;;4935692;29;20206;-73
2021/07/08 03:43:20;;;;;;;0.40;0.40;;;17.90;99.90;;;;;;4935560;29;20261;-74
2021/07/08 03:45:48;;;;;;;0.40;0.40;;;17.80;99.90;;;;;;4935685;29;20258;-74
2021/07/08 03:48:17;;;;;;;0.40;0.40;;;18.30;99.90;;;;;;4935573;29;20718;-73
2021/07/08 03:50:44;;;;;;;0.40;0.40;;;18.30;99.90;;;;;;4935533;29;20667;-73
2021/07/08 03:53:12;;;;;;;0.30;0.30;;;18.00;99.90;;;;;;4935671;29;20202;-73
2021/07/08 03:55:40;;;;;;;0.30;0.30;;;18.20;99.90;;;;;;4935258;29;20206;-73
2021/07/08 03:58:09;;;;;;;0.30;0.30;;;18.30;99.90;;;;;;4935648;29;20202;-73
2021/07/08 04:00:40;;;;;;;0.40;0.40;;;18.40;99.90;;;;;;4935211;29;20276;-74
2021/07/08 04:03:10;;;;;;;0.30;0.30;;;18.30;99.90;;;;;;4935465;29;20205;-74
2021/07/08 04:05:38;;;;;;;0.30;0.30;;;;;;;;;;4935102;29;20202;-74
2021/07/08 04:08:07;;;;;;;0.40;0.40;;;18.30;99.90;;;;;;4935241;29;20206;-74
2021/07/08 04:10:37;;;;;;;0.30;0.30;;;18.50;99.90;;;;;;4935201;29;20257;-73
2021/07/08 04:13:07;;;;;;;0.30;0.30;;;18.70;99.90;;;;;;4935669;29;20214;-73
2021/07/08 04:15:37;;;;;;;0.30;0.30;;;18.40;99.90;;;;;;4935051;29;20671;-73
2021/07/08 04:18:05;;;;;;;0.30;0.30;;;19.00;99.90;;;;;;4935196;29;20206;-73
2021/07/08 04:20:33;;;;;;;0.30;0.30;;;18.70;99.90;;;;;;4935074;29;20599;-73
2021/07/08 04:23:03;;;;;;;0.40;0.40;;;18.80;99.90;;;;;;4934918;29;20225;-74
2021/07/08 04:25:36;;;;;;;0.30;0.30;;;19.10;99.90;;;;;;4934803;29;20216;-74
2021/07/08 04:28:04;;;;;;;0.30;0.30;;;19.20;99.90;;;;;;4932537;29;20261;-74
2021/07/08 04:30:32;;;;;;;0.30;0.30;;;18.80;99.90;;;;;;4953139;28;20290;-75
2021/07/08 04:33:02;;;;;;;0.30;0.30;;;19.20;99.90;;;;;;4953660;28;20229;-75
2021/07/08 04:35:32;;;;;;;0.30;0.30;;;19.10;99.90;;;;;;4953699;29;20228;-77
2021/07/08 04:38:00;;;;;;;0.40;0.40;;;19.10;99.90;;;;;;4953892;29;20212;-74
2021/07/08 04:40:29;;;;;;;0.30;0.30;;;19.20;99.90;;;;;;4953767;29;20225;-74
2021/07/08 04:42:57;;;;;;;0.30;0.30;;;19.20;99.90;;;;;;4953675;28;20230;-75
2021/07/08 04:45:25;;;;;;;0.32;0.32;;;19.30;99.90;;;;;;4953632;29;20261;-75
2021/07/08 04:47:53;;;;;;;0.40;0.40;;;19.40;99.90;;;;;;4953698;29;20260;-73
2021/07/08 04:50:23;;;;;;;0.30;0.30;;;19.50;99.90;;;;;;4953611;29;20202;-76
2021/07/08 04:52:52;;;;;;;0.30;0.30;;;19.50;99.90;;;;;;4953672;28;20244;-74
2021/07/08 04:55:23;;;;;;;0.40;0.40;;;19.50;99.90;;;;;;4953602;29;20216;-74
2021/07/08 04:57:53;;;;;;;0.40;0.40;;;19.60;99.90;;;;;;4953616;29;20260;-74
2021/07/08 05:00:21;;;;;;;0.30;0.30;;;19.50;99.90;;;;;;4953243;29;20217;-75
2021/07/08 05:02:51;;;;;;;0.40;0.40;;;19.60;99.90;;;;;;4953436;28;20225;-74
2021/07/08 05:05:22;;;;;;;0.30;0.30;;;19.60;99.90;;;;;;4952539;29;20697;-75
2021/07/08 05:07:51;;;;;;;0.30;0.30;;;19.60;99.90;;;;;;4935825;29;20201;-76
2021/07/08 05:10:19;;;;;;;0.30;0.30;;;19.80;99.90;;;;;;4915447;29;20664;-75
2021/07/08 05:12:47;;;;;;;0.30;0.30;;;19.80;99.90;;;;;;4914776;29;20290;-73
2021/07/08 05:15:17;;;;;;;0.40;0.40;;;19.80;99.90;;;;;;4915459;29;20261;-71
2021/07/08 05:17:48;;;;;;;0.30;0.30;;;20.00;99.90;;;;;;4913974;29;20203;-73
2021/07/08 05:20:19;;;;;;;0.30;0.30;;;20.10;99.90;;;;;;4913802;29;20223;-73
2021/07/08 05:22:56;;;;;;;0.30;0.30;;;20.10;99.90;;;;;;4915111;29;20226;-73
2021/07/08 05:25:23;;;;;;;0.30;0.30;;;20.10;99.90;;;;;;4914348;29;20206;-73
2021/07/08 05:27:51;;;;;;;0.20;0.20;;;20.00;99.90;;;;;;4913571;29;20672;-73
2021/07/08 05:30:20;;;;;;;0.20;0.20;;;20.10;99.90;;;;;;4915069;29;20207;-73
2021/07/08 05:32:47;;;;;;;0.30;0.30;;;20.00;99.90;;;;;;4915347;29;20275;-74
2021/07/08 05:35:16;;;;;;;0.30;0.30;;;20.10;99.90;;;;;;4914439;29;20210;-73
2021/07/08 05:37:44;;;;;;;0.20;0.20;;;20.10;99.90;;;;;;4915254;29;20203;-73
2021/07/08 05:40:13;;;;;;;0.30;0.30;;;19.80;99.90;;;;;;4915276;29;20720;-74
2021/07/08 05:42:41;;;;;;;0.35;0.35;;;20.10;99.90;;;;;;4917351;29;20263;-73
2021/07/08 05:45:10;;;;;;;0.20;0.20;;;20.10;99.90;;;;;;4918818;29;20215;-73
2021/07/08 05:47:38;;;;;;;0.30;0.30;;;20.00;99.90;;;;;;4918864;29;20246;-73
2021/07/08 05:50:07;;;;;;;0.40;0.40;;;20.00;99.90;;;;;;4918952;29;20199;-73
2021/07/08 05:52:35;;;;;;;0.30;0.30;;;20.00;99.90;;;;;;4918367;29;20297;-73
2021/07/08 05:55:03;;;;;;;0.40;0.40;;;20.10;99.90;;;;;;4918854;29;20203;-73
2021/07/08 05:57:33;;;;;;;0.40;0.40;;;20.10;99.90;;;;;;4918604;29;20254;-73
2021/07/08 06:00:01;;;;;;;0.28;0.28;;;20.10;99.90;;;;;;4918537;29;20218;-74
2021/07/08 06:02:29;;;;;;;0.28;0.28;;;20.10;99.90;;;;;;4918427;29;20258;-73
2021/07/08 06:04:56;;;;;;;0.20;0.20;;;20.00;99.90;;;;;;4918220;29;20207;-73
2021/07/08 06:07:24;;;;;;;0.30;0.30;;;20.00;99.90;;;;;;4918167;29;20246;-73
2021/07/08 06:09:54;;;;;;;0.30;0.30;;;20.00;99.90;;;;;;4918594;29;20589;-74
2021/07/08 06:12:22;;;;;;;0.40;0.40;;;20.00;99.90;;;;;;4918266;29;20287;-73
2021/07/08 06:14:52;;;;;;;0.30;0.30;;;20.10;99.90;;;;;;4918338;29;20235;-73
2021/07/08 06:17:20;;;;;;;0.20;0.20;;;20.90;99.90;;;;;;4917804;29;20578;-73
2021/07/08 06:19:48;;;;;;;0.32;0.32;;;20.20;99.90;;;;;;4918224;29;20239;-73
2021/07/08 06:22:15;;;;;;;0.30;0.30;;;20.20;99.90;;;;;;4917933;29;20231;-73
2021/07/08 06:24:44;;;;;;;0.20;0.20;;;20.30;99.90;;;;;;4918132;29;20211;-74
2021/07/08 06:27:11;;;;;;;0.28;0.28;;;20.90;99.90;;;;;;4917733;29;20581;-75
2021/07/08 06:29:39;;;;;;;0.20;0.20;;;20.40;99.90;;;;;;4918130;29;20210;-74
2021/07/08 06:32:09;;;;;;;0.40;0.40;;;20.40;99.90;;;;;;4917732;29;20649;-75
2021/07/08 06:34:37;;;;;;;0.30;0.30;;;20.40;99.90;;;;;;4918016;29;20235;-75
2021/07/08 06:37:05;;;;;;;0.20;0.20;;;20.30;99.90;;;;;;4917753;29;20202;-74
2021/07/08 06:39:33;;;;;;;0.20;0.20;;;20.40;99.90;;;;;;4917752;29;20580;-75
2021/07/08 06:42:01;;;;;;;0.30;0.30;;;20.40;99.90;;;;;;4917586;29;20274;-74
2021/07/08 06:44:28;;;;;;;0.20;0.20;;;20.40;99.90;;;;;;4917849;29;20680;-74
2021/07/08 06:46:57;;;;;;;0.20;0.20;;;20.40;99.90;;;;;;4917361;29;20672;-75
2021/07/08 06:49:27;;;;;;;0.25;0.25;;;20.20;99.90;;;;;;4917811;29;20665;-74
2021/07/08 06:51:55;;;;;;;0.20;0.20;;;20.50;99.90;;;;;;4917702;29;20291;-75
2021/07/08 06:54:23;;;;;;;0.30;0.30;;;20.60;99.90;;;;;;4916911;29;20207;-75
2021/07/08 06:56:51;;;;;;;0.20;0.20;;;20.70;99.90;;;;;;4917270;29;20203;-74
2021/07/08 06:59:19;;;;;;;0.40;0.40;;;20.80;99.90;;;;;;4917739;29;20249;-74
2021/07/08 07:01:47;;;;;;;0.20;0.20;;;21.00;99.90;;;;;;4917526;29;20254;-74
2021/07/08 07:04:15;;;;;;;0.20;0.20;;;21.00;99.90;;;;;;4917360;29;20211;-74
2021/07/08 07:06:44;;;;;;;0.20;0.20;;;21.60;99.90;;;;;;4917254;29;20270;-74
2021/07/08 07:09:12;;;;;;;0.30;0.30;;;21.50;99.90;;;;;;4917357;29;20234;-74
2021/07/08 07:11:41;;;;;;;0.20;0.20;;;21.70;99.90;;;;;;4917113;29;20606;-74
2021/07/08 07:14:09;;;;;;;0.20;0.20;;;21.80;99.90;;;;;;4917109;29;20249;-74
2021/07/08 07:16:37;;;;;;;0.20;0.20;;;22.50;99.90;;;;;;4917106;29;20826;-74
2021/07/08 07:19:05;;;;;;;0.20;0.20;;;22.30;99.90;;;;;;4917276;29;20249;-75
2021/07/08 07:21:32;;;;;;;0.20;0.20;;;22.60;99.90;;;;;;4917000;29;20281;-75
2021/07/08 07:24:02;;;;;;;0.20;0.20;;;22.80;99.90;;;;;;4916962;29;20301;-74
2021/07/08 07:26:30;;;;;;;0.30;0.30;;;23.10;99.90;;;;;;4917035;29;20230;-74
2021/07/08 07:28:58;;;;;;;0.20;0.20;;;22.90;99.90;;;;;;4917130;29;20245;-74
2021/07/08 07:31:26;;;;;;;0.20;0.20;;;23.10;99.90;;;;;;4917095;29;20250;-73
2021/07/08 07:33:53;;;;;;;0.20;0.20;;;23.20;99.90;;;;;;4917075;29;20711;-73
2021/07/08 07:36:22;;;;;;;0.30;0.30;;;;;;;;;;4917068;29;20242;-73
2021/07/08 07:38:49;;;;;;;0.30;0.30;;;23.50;99.90;;;;;;4917285;29;20238;-74
2021/07/08 07:41:18;;;;;;;0.20;0.20;;;23.40;99.90;;;;;;4916788;29;20513;-74
2021/07/08 07:43:48;;;;;;;0.20;0.20;;;23.40;99.90;;;;;;4916713;29;20207;-74
2021/07/08 07:46:16;;;;;;;0.20;0.20;;;23.30;99.90;;;;;;4916639;29;20238;-75
2021/07/08 07:48:44;;;;;;;0.20;0.20;;;23.30;99.90;;;;;;4916557;29;20249;-74
2021/07/08 07:51:12;;;;;;;0.20;0.20;;;23.20;99.90;;;;;;4916329;29;20222;-73
2021/07/08 07:53:39;;;;;;;0.20;0.20;;;23.20;99.90;;;;;;4916458;29;20253;-74
2021/07/08 07:56:08;;;;;;;0.20;0.20;;;23.30;99.90;;;;;;4916273;29;20664;-74
2021/07/08 07:58:37;;;;;;;0.20;0.20;;;23.30;99.90;;;;;;4918623;29;20211;-73
2021/07/08 08:01:04;;;;;;;0.20;0.20;;;23.40;99.90;;;;;;4916366;29;20258;-73
2021/07/08 08:03:32;;;;;;;0.20;0.20;;;23.50;99.90;;;;;;4916132;29;20742;-72
2021/07/08 08:08:46;;;;;;;0.20;0.20;;;23.40;99.90;;;;;;4916200;29;20210;-73
2021/07/08 08:11:14;;;;;;;0.20;0.20;;;23.30;99.90;;;;;;4916239;29;20237;-73
2021/07/08 08:13:44;;;;;;;0.30;0.30;;;23.30;99.90;;;;;;4916235;29;20210;-73
2021/07/08 08:16:12;;;;;;;0.20;0.20;;;23.30;99.90;;;;;;4915735;29;20297;-73
2021/07/08 08:18:40;;;;;;;0.20;0.20;;;23.30;99.90;;;;;;4916409;29;20210;-73
2021/07/08 08:21:13;;;;;;;0.30;0.30;;;23.30;99.90;;;;;;4916101;29;20281;-73
2021/07/08 08:23:41;;;;;;;0.20;0.20;;;23.30;99.90;;;;;;4916298;29;20354;-73
2021/07/08 08:26:09;;;;;;;0.20;0.20;;;23.40;99.90;;;;;;4915779;29;20210;-73
2021/07/08 08:28:37;;;;;;;0.20;0.20;;;23.30;99.90;;;;;;4915797;29;20651;-73
2021/07/08 08:31:06;;;;;;;0.20;0.20;;;23.40;99.90;;;;;;4915761;29;20230;-73
2021/07/08 08:33:35;;;;;;;0.20;0.20;;;23.40;99.90;;;;;;4916058;29;20208;-73
2021/07/08 08:36:03;;;;;;;0.20;0.20;;;23.40;99.90;;;;;;4915875;29;20237;-73
2021/07/08 08:38:31;;;;;;;0.20;0.20;;;23.60;99.90;;;;;;4915756;29;20286;-73
2021/07/08 08:40:59;;;;;;;0.20;0.20;;;23.70;99.90;;;;;;4915869;29;20226;-73
2021/07/08 08:43:27;;;;;;;0.20;0.20;;;23.80;99.90;;;;;;4915614;29;20787;-73
2021/07/08 08:45:55;;;;;;;0.20;0.20;;;23.80;99.90;;;;;;4915863;29;20469;-73
2021/07/08 08:48:24;;;;;;;0.20;0.20;;;23.80;99.90;;;;;;4915661;29;20206;-73
2021/07/08 08:50:52;;;;;;;0.20;0.20;;;23.80;99.90;;;;;;4915908;29;20206;-73
2021/07/08 08:53:24;;;;;;;0.20;0.20;;;23.80;99.90;;;;;;4915709;29;20202;-73
2021/07/08 08:55:52;;;;;;;0.20;0.20;;;23.80;99.90;;;;;;4915335;29;20203;-73
2021/07/08 08:58:22;;;;;;;0.20;0.20;;;23.90;99.90;;;;;;4915810;29;20651;-73
2021/07/08 09:00:52;;;;;;;0.20;0.20;;;24.20;99.90;;;;;;4915799;29;20233;-73
2021/07/08 09:03:23;;;;;;;0.20;0.20;;;23.80;99.90;;;;;;4915636;29;20266;-73
2021/07/08 09:06:00;;;;;;;0.30;0.30;;;23.80;99.90;;;;;;4915498;29;20210;-73
2021/07/08 09:08:28;;;;;;;0.20;0.20;;;23.80;99.90;;;;;;4915642;29;20280;-73
2021/07/08 09:11:18;;;;;;;0.20;0.20;;;23.70;99.90;;;;;;4916499;29;20237;-73
2021/07/08 09:13:59;;;;;;;0.20;0.20;;;23.90;99.90;;;;;;4911792;29;20207;-73
2021/07/08 09:16:31;;;;;;;0.20;0.20;;;24.00;99.90;;;;;;4915600;29;20747;-73
2021/07/08 09:19:11;;;;;;;0.20;0.20;;;24.00;99.90;;;;;;4919775;29;20237;-72
2021/07/08 09:21:43;;;;;;;0.20;0.20;;;24.00;99.90;;;;;;4919627;29;20226;-73
2021/07/08 09:24:14;;;;;;;0.20;0.20;;;24.00;99.90;;;;;;4919382;29;20206;-73
2021/07/08 09:26:46;;;;;;;0.20;0.20;;;24.00;99.90;;;;;;4919516;29;20210;-73
2021/07/08 09:29:18;;;;;;;0.20;0.20;;;24.20;99.90;;;;;;4919286;29;20211;-73
2021/07/08 09:31:51;;;;;;;0.20;0.20;;;24.40;99.90;;;;;;4919210;29;20306;-73
2021/07/08 09:34:22;;;;;;;0.20;0.20;;;24.50;99.90;;;;;;4919121;29;20625;-73
2021/07/08 09:37:08;;;;;;;0.20;0.20;;;24.60;99.90;;;;;;4918785;29;20234;-73
2021/07/08 09:39:37;;;;;;;0.20;0.20;;;24.60;99.90;;;;;;4919027;29;20206;-73
2021/07/08 09:42:06;;;;;;;0.20;0.20;;;24.60;99.90;;;;;;4918780;29;20265;-73
2021/07/08 09:44:34;;;;;;;0.20;0.20;;;24.60;99.90;;;;;;4919121;29;20217;-73
2021/07/08 09:47:03;;;;;;;0.20;0.20;;;24.50;99.90;;;;;;4918597;29;20732;-73
2021/07/08 09:49:31;;;;;;;0.20;0.20;;;24.30;99.90;;;;;;4918696;29;20207;-73
2021/07/08 09:52:11;;;;;;;0.20;0.20;;;24.20;99.90;;;;;;4918513;29;20230;-73
2021/07/08 09:55:01;;;;;;;0.20;0.20;;;24.00;99.90;;;;;;4918790;29;20583;-73
2021/07/08 09:57:34;;;;;;;0.20;0.20;;;23.90;99.90;;;;;;4918529;29;20210;-73
2021/07/08 10:00:05;;;;;;;0.20;0.20;;;23.80;99.90;;;;;;4918486;29;20242;-73
2021/07/08 10:02:36;;;;;;;0.20;0.20;;;23.90;99.90;;;;;;4918336;29;20226;-73
2021/07/08 10:05:05;;;;;;;0.20;0.20;;;24.00;99.90;;;;;;4918602;29;20211;-73
2021/07/08 10:07:34;;;;;;;0.20;0.20;;;24.10;99.90;;;;;;4918452;29;20254;-73
2021/07/08 10:10:02;;;;;;;0.20;0.20;;;24.20;99.90;;;;;;4918247;29;20236;-73
2021/07/08 10:12:31;;;;;;;0.20;0.20;;;24.40;99.90;;;;;;4918720;29;20253;-73
2021/07/08 10:15:01;;;;;;;0.20;0.20;;;24.60;99.90;;;;;;4918194;29;20211;-73
2021/07/08 10:17:32;;;;;;;0.20;0.20;;;24.90;99.90;;;;;;4918084;29;20251;-74
2021/07/08 10:20:01;;;;;;;0.20;0.20;;;25.10;99.90;;;;;;4918570;29;20285;-73
2021/07/08 10:22:30;;;;;;;0.20;0.20;;;25.10;99.90;;;;;;4918095;29;20692;-74
2021/07/08 10:24:59;;;;;;;0.20;0.20;;;25.00;99.90;;;;;;4918180;29;20652;-74
2021/07/08 10:27:29;;;;;;;0.20;0.20;;;24.80;99.90;;;;;;4931032;28;20201;-74
2021/07/08 10:29:59;;;;;;;0.20;0.20;;;24.70;99.90;;;;;;4929579;29;20258;-74
2021/07/08 10:32:28;;;;;;;0.20;0.20;;;24.60;99.90;;;;;;4937150;29;20281;-74
2021/07/08 10:34:56;;;;;;;0.20;0.20;;;24.40;99.90;;;;;;4948909;29;20202;-74
2021/07/08 10:37:32;;;;;;;0.28;0.28;;;24.30;99.90;;;;;;4952501;29;20206;-74
2021/07/08 10:40:28;;;;;;;0.20;0.20;;;24.20;99.90;;;;;;4936839;29;20236;-75
2021/07/08 10:42:56;;;;;;;0.20;0.20;;;24.20;99.90;;;;;;4936385;29;20257;-75
2021/07/08 10:45:43;;;;;;;0.20;0.20;;;24.10;99.90;;;;;;4935750;29;20622;-75
2021/07/08 10:48:14;;;;;;;0.20;0.20;;;24.10;99.90;;;;;;4936598;29;20219;-75
2021/07/08 10:50:44;;;;;;;0.20;0.20;;;24.10;99.90;;;;;;4936750;29;20276;-75
2021/07/08 10:53:20;;;;;;;0.20;0.20;;;24.10;99.90;;;;;;4936895;29;20210;-75
2021/07/08 10:55:52;;;;;;;0.30;0.30;;;24.20;99.90;;;;;;4936522;29;20250;-74
2021/07/08 10:58:47;;;;;;;0.20;0.20;;;24.20;99.90;;;;;;4936707;29;20589;-74
2021/07/08 11:01:44;;;;;;;0.20;0.20;;;24.30;99.90;;;;;;4936636;29;20233;-74
2021/07/08 11:04:15;;;;;;;0.20;0.20;;;24.50;99.90;;;;;;4936365;29;20230;-75
2021/07/08 11:06:45;;;;;;;0.30;0.30;;;24.50;99.90;;;;;;4936216;29;20209;-75
2021/07/08 11:09:22;;;;;;;0.20;0.20;;;24.50;99.90;;;;;;4936704;29;20206;-75
2021/07/08 11:12:03;;;;;;;0.20;0.20;;;24.60;99.90;;;;;;4936326;29;20233;-75
2021/07/08 11:14:34;;;;;;;0.20;0.20;;;24.70;99.90;;;;;;4936411;29;20217;-74
2021/07/08 11:17:20;;;;;;;0.20;0.20;;;24.80;99.90;;;;;;4935952;29;20633;-76
2021/07/08 11:19:51;;;;;;;0.20;0.20;;;24.80;99.90;;;;;;4936015;29;20239;-75
2021/07/08 11:22:33;;;;;;;0.20;0.20;;;24.70;99.90;;;;;;4936493;29;20226;-75
2021/07/08 11:25:06;;;;;;;0.20;0.20;;;24.80;99.90;;;;;;4936087;29;20582;-76
2021/07/08 11:27:38;;;;;;;0.20;0.20;;;24.80;99.90;;;;;;4935872;29;20261;-76
2021/07/08 11:30:31;;;;;;;0.20;0.20;;;24.70;99.90;;;;;;4936093;29;20569;-76
2021/07/08 11:33:07;;;;;;;0.20;0.20;;;24.80;99.90;;;;;;4935765;29;20230;-76
2021/07/08 11:35:39;;;;;;;0.20;0.20;;;25.00;99.90;;;;;;4935650;29;20236;-76
2021/07/08 11:38:13;;;;;;;0.20;0.20;;;25.10;99.90;;;;;;4935762;29;20230;-76
2021/07/08 11:40:44;;;;;;;0.20;0.20;;;25.00;99.90;;;;;;4935611;29;20269;-76
2021/07/08 11:43:18;;;;;;;0.20;0.20;;;25.00;99.90;;;;;;4935948;29;20222;-76
2021/07/08 11:45:47;;;;;;;0.20;0.20;;;25.00;99.90;;;;;;4935523;29;20269;-76
2021/07/08 11:48:28;;;;;;;0.20;0.20;;;25.40;99.90;;;;;;4935813;29;20311;-76
2021/07/08 11:50:56;;;;;;;0.20;0.20;;;25.90;99.90;;;;;;4935466;29;20206;-75
2021/07/08 11:53:24;;;;;;;0.20;0.20;;;26.10;99.90;;;;;;4935793;29;20202;-76
2021/07/08 11:55:54;;;;;;;0.10;0.10;;;26.20;99.90;;;;;;4938833;29;20577;-76
2021/07/08 11:58:27;;;;;;;0.10;0.10;;;26.40;99.90;;;;;;4935904;29;20210;-77
2021/07/08 12:00:56;;;;;;;0.20;0.20;;;25.90;99.90;;;;;;4947247;29;20202;-77
2021/07/08 12:03:27;;;;;;;0.20;0.20;;;25.90;99.90;;;;;;4940650;29;20472;-77
2021/07/08 12:06:02;;;;;;;0.20;0.20;;;25.90;99.90;;;;;;4935334;29;20217;-78
2021/07/08 12:08:32;;;;;;;0.20;0.20;;;26.10;99.80;;;;;;4937790;29;20217;-77
2021/07/08 12:11:12;;;;;;;0.10;0.10;;;25.90;99.90;;;;;;4943618;28;20221;-77
2021/07/08 12:13:48;;;;;;;0.20;0.20;;;25.80;99.90;;;;;;4954641;29;20627;-78
2021/07/08 12:16:19;;;;;;;0.20;0.20;;;25.70;99.90;;;;;;4945180;29;20201;-77
2021/07/08 12:18:50;;;;;;;0.10;0.10;;;25.70;99.90;;;;;;4941635;29;20198;-77
2021/07/08 12:21:20;;;;;;;0.20;0.20;;;25.40;99.90;;;;;;4939491;29;20226;-77
2021/07/08 12:23:48;;;;;;;0.20;0.20;;;24.90;99.90;;;;;;4943095;29;20221;-76
2021/07/08 12:26:27;;;;;;;0.20;0.20;;;24.80;99.90;;;;;;4934559;29;20731;-77
2021/07/08 12:29:18;;;;;;;0.20;0.20;;;24.70;99.90;;;;;;4942712;29;20253;-76
2021/07/08 12:31:49;;;;;;;0.20;0.20;;;24.60;99.90;;;;;;4942431;28;20217;-76
2021/07/08 12:34:18;;;;;;;0.20;0.20;;;24.90;99.90;;;;;;4936214;29;20205;-77
2021/07/08 12:36:46;;;;;;;0.20;0.20;;;25.10;99.90;;;;;;4947643;29;20268;-76
2021/07/08 12:39:17;;;;;;;0.20;0.20;;;25.30;99.90;;;;;;4945526;29;20284;-77
2021/07/08 12:41:47;;;;;;;0.20;0.20;;;25.40;99.90;;;;;;4952429;28;20259;-76
2021/07/08 12:44:17;;;;;;;0.20;0.20;;;25.40;99.90;;;;;;4935037;29;20372;-77
2021/07/08 12:46:46;;;;;;;0.20;0.20;;;25.10;99.90;;;;;;4948222;29;20233;-76
2021/07/08 12:49:16;;;;;;;0.20;0.20;;;25.00;99.90;;;;;;4952544;29;20237;-76
2021/07/08 12:51:44;;;;;;;0.20;0.20;;;25.10;99.90;;;;;;4939148;29;20714;-76
2021/07/08 12:54:13;;;;;;;0.10;0.10;;;25.20;99.90;;;;;;4949571;29;20253;-76
2021/07/08 12:56:40;;;;;;;0.20;0.20;;;25.60;99.90;;;;;;4939466;29;20262;-76
2021/07/08 12:59:08;;;;;;;0.20;0.20;;;25.50;99.90;;;;;;4937176;29;20206;-76
2021/07/08 13:01:37;;;;;;;0.20;0.20;;;25.40;99.90;;;;;;4935371;29;20230;-77
2021/07/08 13:04:05;;;;;;;0.20;0.20;;;25.00;99.90;;;;;;4934601;29;20229;-76